Terminal Aerodrome Forecast
Issued by NWS

Home | Current Version | Previous Version | Graphics & Text | Print | Product List | Glossary On
Versions: 1 2 3 4 5 6 7 8 9 10 11 12 13 14 15 16 17 18 19 20 21 22 23 24 25 26 27
200
FTUS42 KMHX 211136
TAFPGV
TAF
KPGV 211136Z 2112/2212 00000KT 4SM SHRA BR OVC005
     FM211400 30006KT P6SM VCSH BKN007
     FM211530 31008KT P6SM BKN030
     FM211900 31008KT P6SM BKN045
     FM220200 34003KT P6SM BKN030
     FM220700 00000KT 3SM BR BKN004
      AMD LTD TO CLD VIS AND WIND=

USA.gov is the U.S. government's official web portal to all federal, state and local government web resources and services.